Time;durP1;ratioP1;P1;durP2;ratioP2;P2;SDS_P1;SDS_P2;PMS_P1;PMS_P2;Temp;Humidity;BMP_temperature;BMP_pressure;BME280_temperature;BME280_humidity;BME280_pressure;Samples;Min_cycle;Max_cycle;Signal;HPM_P1;HPM_P2
2023/04/25 00:00:22;;;;;;;51.45;48.22;;;6.60;99.90;;;;;;5089124;28;20035;-69
2023/04/25 00:02:48;;;;;;;51.80;48.20;;;6.70;99.90;;;;;;5084058;28;20036;-69
2023/04/25 00:05:16;;;;;;;52.42;48.97;;;6.70;99.90;;;;;;5085791;28;20131;-69
2023/04/25 00:07:42;;;;;;;53.63;50.00;;;6.70;99.90;;;;;;5067828;28;20086;-69
2023/04/25 00:10:10;;;;;;;64.82;60.65;;;6.60;99.90;;;;;;5090632;28;20067;-70
2023/04/25 00:12:36;;;;;;;61.30;57.47;;;6.60;99.90;;;;;;5069077;28;20040;-69
2023/04/25 00:15:02;;;;;;;64.10;59.88;;;6.70;99.90;;;;;;5084711;28;20122;-69
2023/04/25 00:17:28;;;;;;;56.78;52.65;;;6.70;99.90;;;;;;5070482;28;20084;-69
2023/04/25 00:19:54;;;;;;;62.05;58.03;;;6.70;99.90;;;;;;5071544;28;20035;-69
2023/04/25 00:22:21;;;;;;;57.08;52.83;;;6.70;99.90;;;;;;5088003;28;20063;-69
2023/04/25 00:24:47;;;;;;;59.10;55.70;;;6.70;99.90;;;;;;5119120;27;20102;-69
2023/04/25 00:27:12;;;;;;;54.17;50.85;;;6.60;99.90;;;;;;5122243;27;20487;-69
2023/04/25 00:29:38;;;;;;;55.17;51.20;;;6.60;99.90;;;;;;5085862;28;20086;-69
2023/04/25 00:32:04;;;;;;;47.72;44.63;;;6.60;99.90;;;;;;5068685;28;20087;-69
2023/04/25 00:34:29;;;;;;;56.92;53.65;;;6.60;99.90;;;;;;5071976;28;20399;-69
2023/04/25 00:36:55;;;;;;;49.53;46.00;;;6.60;99.90;;;;;;5091604;28;20036;-69
2023/04/25 00:39:21;;;;;;;47.35;43.78;;;6.50;99.90;;;;;;5072458;27;20127;-70
2023/04/25 00:41:47;;;;;;;53.47;50.03;;;6.50;99.90;;;;;;5091966;28;20040;-69
2023/04/25 00:44:16;;;;;;;55.92;52.38;;;6.40;99.90;;;;;;5086779;28;20134;-69
2023/04/25 00:46:42;;;;;;;50.42;46.80;;;6.50;99.90;;;;;;5089943;28;20039;-69
2023/04/25 00:49:08;;;;;;;52.17;48.95;;;6.40;99.90;;;;;;5090300;28;20035;-69
2023/04/25 00:51:35;;;;;;;49.08;46.40;;;6.40;99.90;;;;;;5075128;27;20039;-69
2023/04/25 00:54:01;;;;;;;51.90;48.42;;;6.30;99.90;;;;;;5075669;27;20078;-68
2023/04/25 00:56:27;;;;;;;49.80;46.22;;;6.30;99.90;;;;;;5091335;27;20036;-69
2023/04/25 00:58:57;;;;;;;50.80;47.65;;;6.20;99.90;;;;;;5086187;28;20031;-68
2023/04/25 01:01:23;;;;;;;54.75;51.08;;;6.20;99.90;;;;;;5091580;28;20058;-68
2023/04/25 01:03:49;;;;;;;54.33;51.03;;;6.10;99.90;;;;;;5087425;28;20043;-69
2023/04/25 01:06:16;;;;;;;51.88;48.70;;;6.20;99.90;;;;;;5089068;28;20039;-69
2023/04/25 01:08:42;;;;;;;51.45;48.35;;;6.10;99.90;;;;;;5091821;28;20419;-68
2023/04/25 01:11:08;;;;;;;51.17;48.40;;;6.10;99.90;;;;;;5090566;28;20043;-68
2023/04/25 01:13:35;;;;;;;52.40;49.30;;;6.10;99.90;;;;;;5086833;28;20058;-69
2023/04/25 01:16:02;;;;;;;52.63;48.45;;;6.10;99.90;;;;;;5090507;28;20131;-68
2023/04/25 01:18:27;;;;;;;51.67;48.15;;;6.10;99.90;;;;;;5118493;27;20036;-69
2023/04/25 01:20:54;;;;;;;49.47;45.88;;;6.10;99.90;;;;;;5092763;27;20027;-68
2023/04/25 01:23:21;;;;;;;48.85;45.42;;;6.00;99.90;;;;;;5073074;27;20447;-69
2023/04/25 01:25:48;;;;;;;48.95;46.08;;;6.00;99.90;;;;;;5090180;28;20416;-69
2023/04/25 01:28:15;;;;;;;49.33;46.00;;;6.00;99.90;;;;;;5090689;28;20423;-69
2023/04/25 01:30:41;;;;;;;48.45;44.85;;;6.00;99.90;;;;;;5090076;28;20055;-69
2023/04/25 01:33:08;;;;;;;49.97;46.60;;;6.00;99.90;;;;;;5089631;28;20040;-69
2023/04/25 01:35:34;;;;;;;50.13;46.90;;;6.00;99.90;;;;;;5089285;28;20043;-69
2023/04/25 01:37:59;;;;;;;49.00;45.47;;;6.00;99.90;;;;;;5088845;28;20042;-68
2023/04/25 01:40:27;;;;;;;46.13;43.13;;;5.90;99.90;;;;;;5072251;28;20035;-69
2023/04/25 01:42:53;;;;;;;48.03;44.38;;;5.90;99.90;;;;;;5121965;27;20224;-69
2023/04/25 01:45:19;;;;;;;49.92;46.40;;;5.90;99.90;;;;;;5135728;27;20036;-69
2023/04/25 01:47:48;;;;;;;48.42;45.42;;;5.90;99.90;;;;;;5104056;27;20053;-69
2023/04/25 01:50:16;;;;;;;50.03;46.50;;;5.90;99.90;;;;;;5103275;27;20403;-69
2023/04/25 01:52:41;;;;;;;50.55;46.92;;;5.90;99.90;;;;;;5104882;28;20589;-70
2023/04/25 01:55:07;;;;;;;50.38;47.35;;;5.90;99.90;;;;;;5103720;27;20143;-69
2023/04/25 01:57:33;;;;;;;53.50;50.33;;;5.90;99.90;;;;;;5087041;28;20031;-69
2023/04/25 02:00:01;;;;;;;50.50;47.35;;;6.00;99.90;;;;;;5088439;27;20044;-69
2023/04/25 02:02:27;;;;;;;49.80;46.45;;;5.90;99.90;;;;;;5070161;28;20313;-69
2023/04/25 02:04:54;;;;;;;49.78;46.67;;;5.90;99.90;;;;;;5091345;28;20452;-69
2023/04/25 02:07:19;;;;;;;49.00;45.83;;;5.90;99.90;;;;;;5087848;28;20144;-69
2023/04/25 02:09:45;;;;;;;49.92;46.55;;;5.90;99.90;;;;;;5073406;27;20127;-69
2023/04/25 02:12:11;;;;;;;49.10;45.60;;;6.00;99.90;;;;;;5089440;27;20531;-69
2023/04/25 02:14:36;;;;;;;47.78;44.90;;;5.90;99.90;;;;;;5089442;28;20494;-68
2023/04/25 02:17:02;;;;;;;48.22;45.20;;;5.90;99.90;;;;;;5104292;27;20471;-69
2023/04/25 02:19:28;;;;;;;51.63;48.22;;;6.00;99.90;;;;;;5088863;28;20036;-69
2023/04/25 02:21:54;;;;;;;49.00;45.97;;;6.00;99.90;;;;;;5090316;28;20071;-69
2023/04/25 02:24:19;;;;;;;47.28;44.38;;;6.00;99.90;;;;;;5103668;27;20906;-69
2023/04/25 02:26:46;;;;;;;49.80;46.55;;;5.90;99.90;;;;;;5086997;28;20512;-69
2023/04/25 02:29:12;;;;;;;48.00;45.17;;;6.00;99.90;;;;;;5088587;28;20546;-69
2023/04/25 02:31:38;;;;;;;51.65;48.08;;;6.00;99.90;;;;;;5089343;28;20043;-70
2023/04/25 02:34:04;;;;;;;53.75;50.67;;;6.00;99.90;;;;;;5102166;28;20539;-69
2023/04/25 02:36:33;;;;;;;51.53;48.42;;;6.00;99.90;;;;;;5090353;28;20079;-69
2023/04/25 02:39:00;;;;;;;50.92;48.03;;;6.00;99.90;;;;;;5084636;28;20027;-69
2023/04/25 02:41:26;;;;;;;48.70;45.72;;;6.00;99.90;;;;;;5088486;28;20046;-69
2023/04/25 02:43:51;;;;;;;52.17;48.72;;;6.00;99.90;;;;;;5070268;27;20043;-70
2023/04/25 02:46:17;;;;;;;52.13;49.05;;;6.00;99.90;;;;;;5106526;27;20062;-69
2023/04/25 02:48:43;;;;;;;51.17;48.55;;;6.10;99.90;;;;;;5069376;28;20059;-69
2023/04/25 02:51:09;;;;;;;51.47;47.92;;;6.00;99.90;;;;;;5109267;27;20388;-69
2023/04/25 02:53:34;;;;;;;49.22;46.42;;;6.00;99.90;;;;;;5086982;27;20061;-69
2023/04/25 02:56:00;;;;;;;51.70;48.42;;;6.00;99.90;;;;;;5088338;27;20035;-69
2023/04/25 02:58:26;;;;;;;51.22;47.97;;;6.10;99.90;;;;;;5105970;28;20069;-69
2023/04/25 03:00:52;;;;;;;52.38;49.05;;;6.00;99.90;;;;;;5084383;28;20043;-69
2023/04/25 03:03:17;;;;;;;50.38;47.17;;;6.00;99.90;;;;;;5121626;27;20127;-69
2023/04/25 03:05:44;;;;;;;49.90;47.20;;;6.00;99.90;;;;;;5088120;28;20043;-69
2023/04/25 03:08:09;;;;;;;50.90;47.55;;;6.00;99.90;;;;;;5086396;28;20035;-68
2023/04/25 03:10:35;;;;;;;49.72;46.97;;;5.90;99.90;;;;;;5091600;27;20491;-69
2023/04/25 03:13:01;;;;;;;50.63;47.53;;;5.90;99.90;;;;;;5087130;28;20054;-69
2023/04/25 03:15:26;;;;;;;49.08;46.10;;;5.90;99.90;;;;;;5105725;27;20673;-69
2023/04/25 03:17:52;;;;;;;49.83;46.17;;;5.90;99.90;;;;;;5072910;28;20146;-69
2023/04/25 03:20:17;;;;;;;47.63;44.25;;;5.90;99.90;;;;;;5119014;27;20138;-69
2023/04/25 03:22:44;;;;;;;47.63;44.95;;;5.80;99.90;;;;;;5086842;28;20032;-69
2023/04/25 03:25:10;;;;;;;49.70;46.33;;;5.70;99.90;;;;;;5086922;28;20035;-69
2023/04/25 03:27:35;;;;;;;50.80;47.60;;;5.70;99.90;;;;;;5059247;28;20036;-69
2023/04/25 03:30:01;;;;;;;50.13;46.78;;;5.70;99.90;;;;;;5086781;28;20062;-69
2023/04/25 03:32:26;;;;;;;48.95;45.63;;;5.60;99.90;;;;;;5086698;28;20043;-69
2023/04/25 03:34:52;;;;;;;51.28;48.00;;;5.70;99.90;;;;;;5088259;28;20603;-68
2023/04/25 03:37:18;;;;;;;50.47;47.65;;;5.70;99.90;;;;;;5070848;28;20058;-69
2023/04/25 03:39:43;;;;;;;50.95;47.72;;;5.60;99.90;;;;;;5088528;28;20084;-69
2023/04/25 03:42:09;;;;;;;51.20;48.10;;;5.60;99.90;;;;;;5103108;28;20372;-69
2023/04/25 03:44:34;;;;;;;52.45;49.75;;;5.50;99.90;;;;;;5088186;28;20567;-69
2023/04/25 03:47:00;;;;;;;49.83;46.33;;;5.40;99.90;;;;;;5088565;28;20457;-69
2023/04/25 03:49:26;;;;;;;49.20;46.40;;;5.40;99.90;;;;;;5068936;28;20089;-69
2023/04/25 03:51:51;;;;;;;49.78;46.70;;;5.30;99.90;;;;;;5070311;28;20042;-68
2023/04/25 03:54:17;;;;;;;49.45;46.38;;;5.20;99.90;;;;;;5087820;28;20049;-69
2023/04/25 03:56:42;;;;;;;48.50;45.85;;;5.10;99.90;;;;;;5071968;28;20034;-68
2023/04/25 03:59:08;;;;;;;48.30;45.70;;;5.10;99.90;;;;;;5070340;28;20045;-68
2023/04/25 04:01:35;;;;;;;49.28;46.05;;;5.00;99.90;;;;;;5086668;28;20313;-69
2023/04/25 04:04:00;;;;;;;50.88;47.80;;;5.00;99.90;;;;;;5105655;28;20121;-69
2023/04/25 04:06:26;;;;;;;50.30;46.55;;;5.10;99.90;;;;;;5120079;27;20085;-69
2023/04/25 04:08:52;;;;;;;48.63;45.97;;;5.10;99.90;;;;;;5088372;28;20044;-70
2023/04/25 04:11:17;;;;;;;50.42;46.92;;;5.10;99.90;;;;;;5090979;27;20031;-69
2023/04/25 04:13:43;;;;;;;51.22;48.25;;;5.10;99.90;;;;;;5072726;28;20167;-69
2023/04/25 04:16:09;;;;;;;51.55;48.08;;;5.20;99.90;;;;;;5091266;27;20043;-69
2023/04/25 04:18:35;;;;;;;53.80;50.55;;;5.20;99.90;;;;;;5073640;28;20407;-69
2023/04/25 04:21:01;;;;;;;50.58;47.58;;;5.10;99.90;;;;;;5092909;28;20090;-69
2023/04/25 04:23:27;;;;;;;49.90;46.80;;;5.10;99.90;;;;;;5094188;27;21454;-69
2023/04/25 04:25:54;;;;;;;49.33;46.65;;;5.00;99.90;;;;;;5089237;28;20078;-69
2023/04/25 04:28:20;;;;;;;48.80;45.80;;;5.00;99.90;;;;;;5092094;28;20070;-69
2023/04/25 04:30:46;;;;;;;49.70;46.90;;;4.90;99.90;;;;;;5090874;27;20036;-68
2023/04/25 04:33:13;;;;;;;47.17;44.72;;;4.80;99.90;;;;;;5107493;27;20043;-69
2023/04/25 04:35:39;;;;;;;49.05;46.13;;;4.80;99.90;;;;;;5091568;28;20415;-69
2023/04/25 04:38:06;;;;;;;48.83;46.10;;;4.70;99.90;;;;;;5105574;28;20122;-68
2023/04/25 04:40:32;;;;;;;48.88;46.28;;;4.70;99.90;;;;;;5091258;28;20139;-69
2023/04/25 04:42:57;;;;;;;53.55;50.45;;;4.70;99.90;;;;;;5090808;27;20043;-69
2023/04/25 04:45:23;;;;;;;55.50;52.13;;;4.60;99.90;;;;;;5058529;28;20552;-68
2023/04/25 04:47:49;;;;;;;53.88;50.78;;;4.60;99.90;;;;;;5123463;27;20035;-69
2023/04/25 04:50:15;;;;;;;55.40;52.45;;;4.70;99.90;;;;;;5072893;28;20046;-69
2023/04/25 04:52:42;;;;;;;57.58;54.15;;;4.80;99.90;;;;;;5089522;28;20054;-69
2023/04/25 04:55:08;;;;;;;51.45;48.35;;;4.80;99.90;;;;;;5088070;28;20407;-69
2023/04/25 04:57:34;;;;;;;57.67;54.20;;;4.90;99.90;;;;;;5088985;28;20031;-69
2023/04/25 05:00:00;;;;;;;53.47;50.65;;;5.00;99.90;;;;;;5091396;27;20427;-69
2023/04/25 05:02:27;;;;;;;61.28;57.75;;;5.10;99.90;;;;;;5074617;28;20402;-69
2023/04/25 05:04:52;;;;;;;59.88;56.85;;;5.10;99.90;;;;;;5088711;28;20084;-69
2023/04/25 05:07:19;;;;;;;63.38;59.72;;;5.20;99.90;;;;;;5111276;27;20491;-69
2023/04/25 05:09:44;;;;;;;60.63;57.25;;;5.30;99.90;;;;;;5074774;28;20141;-69
2023/04/25 05:12:10;;;;;;;53.85;50.53;;;5.30;99.90;;;;;;5090382;28;20122;-69
2023/04/25 05:14:36;;;;;;;50.28;47.50;;;5.30;99.90;;;;;;5086593;28;20036;-69
2023/04/25 05:17:04;;;;;;;48.33;45.67;;;5.40;99.90;;;;;;5091092;28;20543;-69
2023/04/25 05:19:30;;;;;;;48.20;45.60;;;5.50;99.90;;;;;;5088287;28;20463;-69
2023/04/25 05:21:56;;;;;;;48.55;45.70;;;5.50;99.90;;;;;;5088247;27;20039;-69
2023/04/25 05:24:21;;;;;;;47.17;44.63;;;5.60;99.90;;;;;;5104271;27;20039;-69
2023/04/25 05:26:47;;;;;;;50.20;47.30;;;6.00;99.90;;;;;;5104694;27;20067;-69
2023/04/25 05:29:12;;;;;;;53.85;50.63;;;6.20;99.90;;;;;;5088743;28;20108;-69
2023/04/25 05:31:38;;;;;;;52.47;49.67;;;6.50;99.90;;;;;;5090869;28;20466;-69
2023/04/25 05:34:04;;;;;;;53.95;51.03;;;6.80;99.90;;;;;;5074440;27;20043;-69
2023/04/25 05:36:30;;;;;;;52.60;49.75;;;7.50;99.90;;;;;;5091486;28;20565;-69
2023/04/25 05:38:56;;;;;;;52.63;49.58;;;8.00;99.90;;;;;;5093767;27;20042;-69
2023/04/25 05:41:21;;;;;;;52.28;48.85;;;8.20;99.90;;;;;;5089810;28;20554;-69
2023/04/25 05:43:49;;;;;;;53.92;50.63;;;8.20;99.90;;;;;;5123329;27;20486;-69
2023/04/25 05:46:16;;;;;;;50.38;47.42;;;8.10;99.90;;;;;;5074152;28;20031;-69
2023/04/25 05:48:43;;;;;;;51.53;47.92;;;7.90;99.90;;;;;;5088269;28;20069;-69
2023/04/25 05:51:08;;;;;;;52.47;49.65;;;7.70;99.90;;;;;;5090325;27;20047;-69
2023/04/25 05:53:34;;;;;;;51.45;48.47;;;7.50;99.90;;;;;;5088637;27;20501;-69
2023/04/25 05:56:00;;;;;;;48.85;45.65;;;7.40;99.90;;;;;;5073044;28;20063;-69
2023/04/25 05:58:26;;;;;;;51.75;48.85;;;7.30;99.90;;;;;;5090359;28;20088;-69
2023/04/25 06:00:51;;;;;;;51.15;48.28;;;7.20;99.90;;;;;;5084963;28;20031;-69
2023/04/25 06:03:17;;;;;;;50.05;47.03;;;7.20;99.90;;;;;;5091889;28;20040;-69
2023/04/25 06:05:43;;;;;;;52.17;49.00;;;7.30;99.90;;;;;;5105165;28;20047;-70
2023/04/25 06:08:10;;;;;;;53.85;50.35;;;7.60;99.90;;;;;;5091764;28;20035;-69
2023/04/25 06:10:36;;;;;;;65.18;61.70;;;7.70;99.90;;;;;;5089259;28;20097;-69
2023/04/25 06:13:02;;;;;;;59.92;56.85;;;7.80;99.90;;;;;;5077353;28;20059;-69
2023/04/25 06:15:28;;;;;;;72.50;68.90;;;7.80;99.90;;;;;;5087959;28;20039;-69
2023/04/25 06:17:53;;;;;;;52.25;49.55;;;7.60;99.90;;;;;;5081941;28;20118;-69
2023/04/25 06:20:22;;;;;;;51.72;48.90;;;7.50;99.90;;;;;;5084884;28;21247;-69
2023/04/25 06:22:49;;;;;;;59.47;56.08;;;7.40;99.90;;;;;;5069397;28;20041;-69
2023/04/25 06:25:15;;;;;;;55.72;52.70;;;7.40;99.90;;;;;;5082910;28;20078;-69
2023/04/25 06:27:40;;;;;;;80.28;76.35;;;7.40;99.90;;;;;;5085704;28;20511;-69
2023/04/25 06:30:07;;;;;;;50.80;47.53;;;7.50;99.90;;;;;;5082667;28;20116;-69
2023/04/25 06:32:34;;;;;;;53.45;50.55;;;7.40;99.90;;;;;;5102907;27;20035;-69
2023/04/25 06:35:00;;;;;;;53.85;51.15;;;7.50;99.90;;;;;;5085285;28;20122;-69
2023/04/25 06:37:25;;;;;;;54.83;51.97;;;7.50;99.90;;;;;;5082551;28;20119;-69
2023/04/25 06:39:51;;;;;;;54.80;51.92;;;7.50;99.90;;;;;;5082770;28;20050;-69
2023/04/25 06:42:17;;;;;;;65.47;62.45;;;7.90;99.90;;;;;;5065823;28;20092;-69
2023/04/25 06:44:42;;;;;;;48.50;45.92;;;8.40;99.90;;;;;;5117860;27;20499;-70
2023/04/25 06:47:08;;;;;;;41.60;39.53;;;8.70;99.90;;;;;;5086594;28;20395;-70
2023/04/25 06:49:33;;;;;;;44.58;42.35;;;9.10;99.90;;;;;;5083187;28;20048;-69
2023/04/25 06:51:59;;;;;;;47.33;44.83;;;9.80;99.90;;;;;;5085339;28;20078;-69
2023/04/25 06:54:26;;;;;;;45.03;42.63;;;10.50;99.90;;;;;;5070001;28;20050;-69
2023/04/25 06:56:53;;;;;;;48.17;45.65;;;10.50;99.90;;;;;;5087154;28;20451;-69
2023/04/25 06:59:19;;;;;;;39.22;36.97;;;9.90;99.90;;;;;;5086265;28;20044;-69
2023/04/25 07:01:45;;;;;;;79.95;76.10;;;9.80;99.90;;;;;;5104121;28;20043;-69
2023/04/25 07:04:10;;;;;;;54.40;51.40;;;9.90;99.90;;;;;;5085095;28;20070;-69
2023/04/25 07:06:42;;;;;;;55.97;53.00;;;9.50;99.90;;;;;;5079823;28;20040;-69
2023/04/25 07:09:11;;;;;;;64.68;61.30;;;9.20;99.90;;;;;;5100987;27;20101;-69
2023/04/25 07:11:36;;;;;;;63.20;60.30;;;8.90;99.90;;;;;;5105136;27;20085;-69
2023/04/25 07:14:03;;;;;;;62.58;59.58;;;8.80;99.90;;;;;;5071555;28;20044;-69
2023/04/25 07:16:29;;;;;;;59.05;55.95;;;8.80;99.90;;;;;;5080212;28;20132;-69
2023/04/25 07:18:54;;;;;;;58.35;55.17;;;8.80;99.90;;;;;;5089548;28;20059;-69
2023/04/25 07:21:20;;;;;;;64.32;61.20;;;8.90;99.90;;;;;;5088953;28;20480;-69
2023/04/25 07:23:46;;;;;;;92.57;87.72;;;9.00;99.90;;;;;;5088943;28;20042;-69
2023/04/25 07:26:12;;;;;;;66.50;63.22;;;9.20;99.90;;;;;;5086273;28;20365;-69
2023/04/25 07:28:37;;;;;;;53.65;50.78;;;9.30;99.90;;;;;;5070353;28;20559;-69
2023/04/25 07:31:03;;;;;;;58.35;55.22;;;9.30;99.90;;;;;;5086338;28;20122;-69
2023/04/25 07:33:29;;;;;;;54.70;51.95;;;9.20;99.90;;;;;;5082409;28;20040;-70
2023/04/25 07:35:55;;;;;;;54.22;51.08;;;9.20;99.90;;;;;;5084202;28;20047;-69
2023/04/25 07:38:21;;;;;;;37.05;34.92;;;9.00;99.90;;;;;;5074064;28;20411;-69
2023/04/25 07:40:50;;;;;;;40.88;38.60;;;8.90;99.90;;;;;;5084944;28;20039;-69
2023/04/25 07:43:16;;;;;;;48.00;45.35;;;8.70;99.90;;;;;;5068002;28;20663;-69
2023/04/25 07:45:46;;;;;;;42.05;39.83;;;8.60;99.90;;;;;;5085086;28;20048;-69
2023/04/25 07:48:13;;;;;;;41.28;38.63;;;8.60;99.90;;;;;;5076450;27;20040;-69
2023/04/25 07:50:38;;;;;;;43.58;41.45;;;8.50;99.90;;;;;;5088159;28;20070;-69
2023/04/25 07:53:04;;;;;;;47.17;44.80;;;8.50;99.90;;;;;;5108779;27;20036;-69
2023/04/25 07:55:30;;;;;;;44.55;42.25;;;8.60;99.90;;;;;;5105320;27;20047;-69
2023/04/25 07:57:55;;;;;;;58.50;55.58;;;8.50;99.90;;;;;;5090202;28;20035;-69
2023/04/25 08:00:21;;;;;;;44.60;42.40;;;8.60;99.90;;;;;;5089461;27;20119;-69
2023/04/25 08:02:46;;;;;;;48.40;45.80;;;8.70;99.90;;;;;;5088205;28;20050;-69
2023/04/25 08:05:14;;;;;;;49.22;46.30;;;8.70;99.90;;;;;;5090377;27;20099;-69
2023/04/25 08:07:41;;;;;;;44.25;42.08;;;8.70;99.90;;;;;;5107116;27;20496;-70
2023/04/25 08:10:07;;;;;;;45.35;42.95;;;8.90;99.90;;;;;;5091626;27;20444;-69
2023/04/25 08:12:33;;;;;;;40.90;38.60;;;9.10;99.90;;;;;;5086804;28;20039;-69
2023/04/25 08:14:59;;;;;;;46.75;44.42;;;9.30;99.90;;;;;;5108825;27;20043;-69
2023/04/25 08:17:24;;;;;;;50.47;48.03;;;9.30;99.90;;;;;;5088253;28;20100;-69
2023/04/25 08:19:50;;;;;;;103.70;97.22;;;9.00;99.90;;;;;;5125699;27;20142;-69
2023/04/25 08:22:16;;;;;;;53.00;50.25;;;8.60;99.90;;;;;;5088146;28;20059;-69
2023/04/25 08:24:42;;;;;;;50.88;48.17;;;8.10;99.90;;;;;;5072363;28;20043;-69
2023/04/25 08:27:07;;;;;;;47.38;45.15;;;7.80;99.90;;;;;;5073119;28;20036;-69
2023/04/25 08:29:34;;;;;;;51.08;48.67;;;7.70;99.90;;;;;;5089509;28;20051;-70
2023/04/25 08:32:00;;;;;;;72.90;69.30;;;7.70;99.90;;;;;;5089891;28;20064;-69
2023/04/25 08:34:26;;;;;;;64.32;61.42;;;8.00;99.90;;;;;;5071244;28;20040;-69
2023/04/25 08:36:52;;;;;;;121.45;114.88;;;8.50;99.90;;;;;;5073989;28;20039;-69
2023/04/25 08:39:18;;;;;;;61.08;58.05;;;8.70;99.90;;;;;;5091202;27;20126;-69
2023/04/25 08:41:44;;;;;;;67.93;64.90;;;8.20;99.90;;;;;;5086527;28;20145;-69
2023/04/25 08:44:11;;;;;;;66.60;63.30;;;7.50;99.90;;;;;;5086831;28;20122;-69
2023/04/25 08:46:39;;;;;;;64.18;61.33;;;7.10;99.90;;;;;;5074237;28;20036;-69
2023/04/25 08:49:05;;;;;;;55.22;52.42;;;7.20;99.90;;;;;;5090591;28;20399;-69
2023/04/25 08:51:32;;;;;;;59.17;56.38;;;7.70;99.90;;;;;;5107303;28;20028;-69
2023/04/25 08:54:11;;;;;;;55.65;52.92;;;8.10;99.90;;;;;;5072911;28;20335;-69
2023/04/25 08:56:43;;;;;;;54.42;51.92;;;8.60;99.90;;;;;;5081607;28;20135;-69
2023/04/25 08:59:12;;;;;;;52.75;49.95;;;9.50;99.90;;;;;;5090465;28;20036;-69
2023/04/25 09:01:38;;;;;;;49.80;47.30;;;9.80;99.90;;;;;;5107162;28;20098;-69
2023/04/25 09:04:04;;;;;;;52.28;49.92;;;9.90;99.90;;;;;;5090989;28;20559;-69
2023/04/25 09:06:30;;;;;;;94.18;89.35;;;10.00;99.90;;;;;;5074106;28;20488;-69
2023/04/25 09:09:06;;;;;;;64.80;61.90;;;10.60;99.90;;;;;;5090677;28;20062;-69
2023/04/25 09:11:35;;;;;;;68.25;65.15;;;11.00;99.90;;;;;;5123478;27;20059;-69
2023/04/25 09:14:15;;;;;;;60.97;58.13;;;11.40;99.90;;;;;;5082940;28;20421;-69
2023/04/25 09:16:56;;;;;;;98.38;94.07;;;11.70;99.90;;;;;;5072406;28;20038;-68
2023/04/25 09:19:23;;;;;;;53.95;51.42;;;12.00;99.90;;;;;;5104265;28;20078;-69
2023/04/25 09:21:49;;;;;;;70.68;67.38;;;12.20;99.90;;;;;;5089218;28;20071;-69
2023/04/25 09:28:10;;;;;;;32.67;30.77;;;12.40;99.90;;;;;;5105554;28;20063;-68
2023/04/25 09:34:02;;;;;;;55.45;52.55;;;10.40;99.90;;;;;;5089911;28;20051;-68
2023/04/25 09:37:06;;;;;;;55.10;52.17;;;9.00;99.90;;;;;;5086142;28;20399;-69
2023/04/25 09:40:10;;;;;;;58.53;55.28;;;8.20;99.90;;;;;;5107339;28;20500;-68
2023/04/25 09:43:32;;;;;;;52.28;49.45;;;8.00;99.90;;;;;;5091941;27;20172;-68
2023/04/25 09:46:38;;;;;;;80.35;76.40;;;8.50;99.90;;;;;;5104126;28;20516;-68
2023/04/25 09:49:27;;;;;;;76.53;72.75;;;9.20;99.90;;;;;;5114185;27;20031;-68
2023/04/25 09:52:30;;;;;;;91.57;86.38;;;9.70;99.90;;;;;;5106521;28;20599;-68
2023/04/25 09:58:43;;;;;;;50.53;47.85;;;10.10;99.90;;;;;;5107985;28;20128;-68
2023/04/25 10:01:27;;;;;;;;;;;10.20;99.90;;;;;;5072089;28;20109;-68
2023/04/25 10:10:25;;;;;;;32.05;30.08;;;10.90;99.90;;;;;;5095833;28;20092;-68
2023/04/25 10:13:47;;;;;;;42.22;39.67;;;11.40;99.90;;;;;;5098038;27;20046;-68
2023/04/25 10:23:01;;;;;;;38.53;36.28;;;11.20;99.90;;;;;;5070242;28;20064;-69
2023/04/25 10:26:12;;;;;;;31.20;29.10;;;11.30;99.90;;;;;;5078024;28;20040;-68
2023/04/25 10:29:21;;;;;;;31.42;29.58;;;11.20;99.90;;;;;;5100569;27;20058;-68
2023/04/25 10:32:24;;;;;;;29.50;27.90;;;10.90;99.90;;;;;;5100383;27;20591;-68
2023/04/25 10:38:15;;;;;;;50.35;47.40;;;10.70;99.90;;;;;;5082359;28;20074;-68
2023/04/25 10:41:19;;;;;;;35.08;32.88;;;10.60;99.90;;;;;;5103637;27;20402;-68
2023/04/25 10:43:46;;;;;;;43.28;40.92;;;10.50;99.90;;;;;;5082335;28;20428;-69
2023/04/25 10:46:49;;;;;;;29.77;27.98;;;10.70;99.90;;;;;;5101030;28;20047;-68
2023/04/25 10:53:05;;;;;;;32.60;30.58;;;11.10;99.90;;;;;;5070308;28;20131;-68
2023/04/25 10:55:49;;;;;;;33.65;31.65;;;10.60;99.90;;;;;;5095719;27;20381;-68
2023/04/25 11:01:56;;;;;;;46.15;43.38;;;9.30;99.90;;;;;;5071414;28;20047;-69
2023/04/25 11:04:59;;;;;;;61.20;58.17;;;9.30;99.90;;;;;;5091736;28;20551;-69
2023/04/25 11:10:54;;;;;;;49.05;46.30;;;10.50;99.90;;;;;;5093672;28;20040;-69
2023/04/25 11:13:20;;;;;;;62.65;57.30;;;11.00;99.90;;;;;;5068658;28;20496;-69
2023/04/25 11:16:23;;;;;;;;;;;11.60;99.90;;;;;;5075968;28;20397;-69
2023/04/25 11:18:58;;;;;;;33.38;31.15;;;11.70;99.50;;;;;;5065425;28;19923;-68
2023/04/25 11:21:26;;;;;;;;;;;11.40;98.60;;;;;;5095633;27;20346;-69
2023/04/25 11:26:27;;;;;;;30.45;28.52;;;11.30;98.90;;;;;;5302809;22;20052;-67
2023/04/25 11:28:58;;;;;;;67.28;63.67;;;11.30;99.90;;;;;;5049082;28;20469;-67
2023/04/25 11:31:25;;;;;;;28.83;26.98;;;11.60;99.20;;;;;;5104234;28;20406;-67
2023/04/25 11:33:52;;;;;;;48.30;45.47;;;11.70;99.90;;;;;;5106277;28;20382;-67
2023/04/25 11:36:18;;;;;;;24.67;23.25;;;11.80;97.00;;;;;;5081618;28;20593;-67
2023/04/25 11:38:44;;;;;;;24.10;22.70;;;11.60;96.60;;;;;;5088608;28;20149;-67
2023/04/25 11:41:10;;;;;;;20.65;19.05;;;11.30;96.70;;;;;;5105349;28;20126;-67
2023/04/25 11:43:35;;;;;;;28.98;27.08;;;11.00;96.50;;;;;;5080393;28;20047;-67
2023/04/25 11:46:06;;;;;;;43.10;40.35;;;10.70;98.40;;;;;;5088998;28;20043;-67
2023/04/25 11:48:42;;;;;;;33.60;31.70;;;10.90;99.20;;;;;;5088487;28;20118;-66
2023/04/25 11:51:08;;;;;;;28.15;26.45;;;11.20;98.00;;;;;;5092281;28;20270;-67
2023/04/25 11:53:35;;;;;;;24.63;23.13;;;11.40;97.40;;;;;;5082525;28;20050;-67
2023/04/25 11:56:01;;;;;;;25.20;23.50;;;11.50;98.50;;;;;;5078852;28;20120;-67
2023/04/25 11:58:27;;;;;;;27.35;25.58;;;11.90;99.30;;;;;;5088098;28;20453;-67
2023/04/25 12:00:53;;;;;;;23.50;21.92;;;12.20;94.90;;;;;;5084295;28;20044;-67
2023/04/25 12:03:19;;;;;;;41.63;39.22;;;11.90;96.70;;;;;;5057476;28;20372;-67
2023/04/25 12:05:45;;;;;;;19.55;18.05;;;11.90;98.20;;;;;;5081648;28;20039;-67
2023/04/25 12:08:12;;;;;;;38.50;36.40;;;12.00;99.20;;;;;;5088095;28;20058;-67
2023/04/25 12:10:39;;;;;;;22.35;20.42;;;12.10;98.90;;;;;;5066271;28;20122;-67
2023/04/25 12:13:19;;;;;;;32.78;30.88;;;12.00;96.50;;;;;;5091291;28;20590;-66
2023/04/25 12:15:45;;;;;;;21.80;20.13;;;11.80;98.20;;;;;;5088148;28;20109;-66
2023/04/25 12:18:11;;;;;;;24.08;22.67;;;11.90;98.50;;;;;;5074153;28;20060;-67
2023/04/25 12:20:36;;;;;;;23.85;22.20;;;12.00;98.90;;;;;;5068701;28;20155;-67
2023/04/25 12:23:07;;;;;;;42.40;39.47;;;11.90;97.50;;;;;;5087656;28;20035;-67
2023/04/25 12:25:41;;;;;;;32.65;30.38;;;11.60;96.50;;;;;;5070337;28;20562;-66
2023/04/25 12:28:23;;;;;;;28.02;26.10;;;11.00;98.30;;;;;;5083294;28;20043;-67
2023/04/25 12:30:52;;;;;;;25.88;24.05;;;10.60;99.70;;;;;;5085726;28;20043;-66
2023/04/25 12:33:18;;;;;;;27.80;25.92;;;10.30;99.90;;;;;;5088384;28;20383;-67
2023/04/25 12:35:44;;;;;;;27.40;25.55;;;10.20;99.90;;;;;;5073532;28;20070;-67
2023/04/25 12:38:09;;;;;;;27.23;25.60;;;10.50;99.90;;;;;;5109127;28;20063;-67
2023/04/25 12:40:35;;;;;;;24.67;22.92;;;10.80;97.40;;;;;;5093067;28;20043;-67
2023/04/25 12:43:00;;;;;;;23.42;21.77;;;10.80;96.40;;;;;;5090636;28;20585;-66
2023/04/25 12:45:26;;;;;;;19.83;18.08;;;10.60;98.00;;;;;;5109970;28;20039;-67
2023/04/25 12:47:52;;;;;;;19.88;18.23;;;10.30;99.90;;;;;;5071766;28;20113;-67
2023/04/25 12:50:17;;;;;;;31.80;30.00;;;10.20;99.90;;;;;;5105906;28;20161;-67
2023/04/25 12:52:43;;;;;;;51.45;48.47;;;10.30;99.90;;;;;;5082606;28;20036;-67
2023/04/25 12:55:08;;;;;;;25.08;23.13;;;10.50;98.60;;;;;;5091319;28;20120;-67
2023/04/25 12:57:34;;;;;;;33.03;31.02;;;10.40;99.00;;;;;;5082129;28;20075;-66
2023/04/25 13:00:00;;;;;;;28.23;26.45;;;10.40;98.30;;;;;;5079878;28;20043;-67
2023/04/25 13:02:26;;;;;;;26.73;24.95;;;10.20;97.60;;;;;;5105544;27;20043;-66
2023/04/25 13:04:51;;;;;;;19.90;18.50;;;10.00;98.50;;;;;;5093739;27;20144;-66
2023/04/25 13:07:17;;;;;;;23.23;21.17;;;9.80;99.60;;;;;;5096959;28;20048;-67
2023/04/25 13:09:43;;;;;;;23.70;21.95;;;9.70;99.90;;;;;;5082932;28;20083;-67
2023/04/25 13:12:08;;;;;;;23.00;21.13;;;9.80;99.80;;;;;;5082952;28;20039;-66
2023/04/25 13:14:34;;;;;;;20.10;18.67;;;10.30;99.90;;;;;;5108271;28;20486;-67
2023/04/25 13:17:00;;;;;;;21.25;20.05;;;10.90;99.90;;;;;;5065375;28;20054;-67
2023/04/25 13:19:26;;;;;;;21.63;19.88;;;11.30;99.10;;;;;;5081015;28;20050;-67
2023/04/25 13:21:51;;;;;;;26.85;25.02;;;11.30;98.70;;;;;;5089862;27;20444;-67